Lakeville, MN

4:33 PM CST on February 07, 2016 (GMT -0600)
lakevilleweather.com (Cedar and Dodd) | | Change Station
CLOSE
Current Station
Personal Weather Station
Location: Lakeville, MN
Elevation: 1000 ft
Nearby Weather Stations
Active Advisory: Winter Weather Advisory Active Notice: Public Information Statement

Elev 1000 ft 44.70 °N, 93.22 °W | Updated 4 seconds ago

Overcast
Overcast
34.9 °F
Feels Like 35 °F
N
1.0
Wind Variable Wind from SSW
Gusts 11.0 mph

Today
High -- | Low -- °F
--% Chance of Precip.
Yesterday
High -- | Low -- °F
Precip. -- in
Pressure 29.64 in
Visibility 10.0 miles
Clouds Overcast 2300 ft
Windchill 35 °F
Dew Point 29 °F
Humidity 80%
Rainfall 0.02 in
Snow Depth Not available.
7:25 AM 5:29 PM
Waning Crescent, 1% visible
METAR KLVN 072155Z AUTO 26011G20KT 10SM OVC023 02/M01 A2964 RMK AO2
Pressure 29.64 in
Visibility 10.0 miles
Clouds Overcast 2300 ft
Windchill 35 °F
Dew Point 29 °F
Humidity 80%
Rainfall 0.02 in
Snow Depth Not available.
7:25 AM 5:29 PM
Waning Crescent, 1% visible
METAR KLVN 072155Z AUTO 26011G20KT 10SM OVC023 02/M01 A2964 RMK AO2

10-Day Weather Forecast

Almanac

Astronomy

Feb. 07, 2016 Rise Set
Actual Time
Civil Twilight
Nautical Twilight
Astronomical Twilight
Moon
Length of Visible Light
Length of Day
Tomorrow will be .
, % of the Moon is Illuminated

Today's Extremes

State Highs State Lows

Community

WunderPhotos

Upload Photos

1,891,324 photos uploaded!

WunderBlog® & News

Nearby

Air Quality

  Air Quality AQ Index Pollutant
Not available.

Snow Depth

Station Depth Elevation

Earthquake Activity

City Distance Mag. Time & Date
Minimum magnitude displayed is 2.5.

Coastal Water Temperatures

Place Temperature

Stations

Nearby Weather Stations

Station Location Temp. Windchill Dew Point Humidity Wind Precip. Elev Updated Type
                   

Watches & Warnings

Winter Weather Advisory
Issued: 12:59 PM CST Feb. 7, 2016 – National Weather Service

... Winter Weather Advisory remains in effect from 7 PM this
evening to noon CST Monday...

A Winter Weather Advisory remains in effect from 7 PM this
evening to noon CST Monday.

* Expect snow to develop around 7 PM and then diminish around
noon Monday.

* Total snow accumulations of up to 1 inch are expected.

* Winds gusting as high as 40 mph will cause widespread blowing
and drifting snow.

* Plan on slippery Road conditions.

Precautionary/preparedness actions...

A Winter Weather Advisory for snow means periods of snow will
cause primarily travel difficulties. Be prepared for snow covered
roads and limited visibilities... and use caution while driving.
The latest Road conditions for the state you are calling from can
be obtained by calling 5 1 1.


Jlt